sensor_id;sensor_type;location;lat;lon;timestamp;pressure;altitude;pressure_sealevel;temperature;humidity
19783;BME280;10051;40.294;-3.754;2024-03-08T00:02:14;93146.53;;;6.93;100.00
19783;BME280;10051;40.294;-3.754;2024-03-08T00:04:39;93145.56;;;7.08;100.00
19783;BME280;10051;40.294;-3.754;2024-03-08T00:07:05;93115.63;;;6.76;100.00
19783;BME280;10051;40.294;-3.754;2024-03-08T00:09:32;93053.06;;;6.41;100.00
19783;BME280;10051;40.294;-3.754;2024-03-08T00:11:58;93139.25;;;7.09;100.00
19783;BME280;10051;40.294;-3.754;2024-03-08T00:14:23;93133.63;;;7.02;100.00
19783;BME280;10051;40.294;-3.754;2024-03-08T00:16:49;93132.34;;;6.99;100.00
19783;BME280;10051;40.294;-3.754;2024-03-08T00:19:15;93108.53;;;6.81;100.00
19783;BME280;10051;40.294;-3.754;2024-03-08T00:21:40;93104.56;;;6.84;100.00
19783;BME280;10051;40.294;-3.754;2024-03-08T00:24:07;93092.84;;;6.81;100.00
19783;BME280;10051;40.294;-3.754;2024-03-08T00:26:33;93108.53;;;6.81;100.00
19783;BME280;10051;40.294;-3.754;2024-03-08T00:28:58;93105.69;;;6.97;100.00
19783;BME280;10051;40.294;-3.754;2024-03-08T00:31:24;93105.56;;;6.88;100.00
19783;BME280;10051;40.294;-3.754;2024-03-08T00:33:50;93105.06;;;6.86;100.00
19783;BME280;10051;40.294;-3.754;2024-03-08T00:36:16;93092.19;;;6.70;100.00
19783;BME280;10051;40.294;-3.754;2024-03-08T00:38:42;93084.69;;;6.64;100.00
19783;BME280;10051;40.294;-3.754;2024-03-08T00:41:07;93060.75;;;6.57;100.00
19783;BME280;10051;40.294;-3.754;2024-03-08T00:43:33;93071.50;;;6.74;100.00
19783;BME280;10051;40.294;-3.754;2024-03-08T00:46:02;93108.06;;;6.98;100.00
19783;BME280;10051;40.294;-3.754;2024-03-08T00:48:28;93043.06;;;6.48;100.00
19783;BME280;10051;40.294;-3.754;2024-03-08T00:50:53;93086.13;;;6.75;100.00
19783;BME280;10051;40.294;-3.754;2024-03-08T00:53:19;93072.03;;;6.52;100.00
19783;BME280;10051;40.294;-3.754;2024-03-08T00:55:44;93070.75;;;6.49;100.00
19783;BME280;10051;40.294;-3.754;2024-03-08T00:58:12;93102.00;;;6.79;100.00
19783;BME280;10051;40.294;-3.754;2024-03-08T01:00:38;93086.09;;;6.56;100.00
19783;BME280;10051;40.294;-3.754;2024-03-08T01:03:06;93087.25;;;6.69;100.00
19783;BME280;10051;40.294;-3.754;2024-03-08T01:05:32;93053.03;;;6.46;100.00
19783;BME280;10051;40.294;-3.754;2024-03-08T01:07:58;93086.88;;;6.76;100.00
19783;BME280;10051;40.294;-3.754;2024-03-08T01:10:23;93082.06;;;6.64;100.00
19783;BME280;10051;40.294;-3.754;2024-03-08T01:12:49;93098.47;;;6.89;100.00
19783;BME280;10051;40.294;-3.754;2024-03-08T01:15:15;93097.06;;;6.77;100.00
19783;BME280;10051;40.294;-3.754;2024-03-08T01:17:41;93079.47;;;6.64;100.00
19783;BME280;10051;40.294;-3.754;2024-03-08T01:20:07;93102.31;;;6.77;100.00
19783;BME280;10051;40.294;-3.754;2024-03-08T01:22:36;93085.91;;;6.72;100.00
19783;BME280;10051;40.294;-3.754;2024-03-08T01:25:02;93075.44;;;6.72;100.00
19783;BME280;10051;40.294;-3.754;2024-03-08T01:27:30;93082.22;;;6.73;100.00
19783;BME280;10051;40.294;-3.754;2024-03-08T01:29:55;93090.56;;;6.75;100.00
19783;BME280;10051;40.294;-3.754;2024-03-08T01:32:21;93059.81;;;6.66;100.00
19783;BME280;10051;40.294;-3.754;2024-03-08T01:34:49;93062.03;;;6.59;100.00
19783;BME280;10051;40.294;-3.754;2024-03-08T01:37:14;93036.72;;;6.54;100.00
19783;BME280;10051;40.294;-3.754;2024-03-08T01:39:40;93079.28;;;6.79;100.00
19783;BME280;10051;40.294;-3.754;2024-03-08T01:42:06;93043.81;;;6.73;100.00
19783;BME280;10051;40.294;-3.754;2024-03-08T01:44:31;93071.03;;;6.91;100.00
19783;BME280;10051;40.294;-3.754;2024-03-08T01:46:57;93033.44;;;6.68;100.00
19783;BME280;10051;40.294;-3.754;2024-03-08T01:49:23;92988.09;;;6.39;100.00
19783;BME280;10051;40.294;-3.754;2024-03-08T01:51:51;93009.94;;;6.68;100.00
19783;BME280;10051;40.294;-3.754;2024-03-08T01:54:18;92996.00;;;6.53;100.00
19783;BME280;10051;40.294;-3.754;2024-03-08T01:56:45;93031.69;;;6.82;100.00
19783;BME280;10051;40.294;-3.754;2024-03-08T01:59:12;93033.38;;;6.73;100.00
19783;BME280;10051;40.294;-3.754;2024-03-08T02:01:38;93009.06;;;6.73;100.00
19783;BME280;10051;40.294;-3.754;2024-03-08T02:04:03;93028.78;;;6.84;100.00
19783;BME280;10051;40.294;-3.754;2024-03-08T02:06:32;93010.84;;;6.58;100.00
19783;BME280;10051;40.294;-3.754;2024-03-08T02:08:58;93012.72;;;6.52;100.00
19783;BME280;10051;40.294;-3.754;2024-03-08T02:11:24;93018.56;;;6.44;100.00
19783;BME280;10051;40.294;-3.754;2024-03-08T02:13:49;93026.19;;;6.40;100.00
19783;BME280;10051;40.294;-3.754;2024-03-08T02:16:24;93030.66;;;6.40;100.00
19783;BME280;10051;40.294;-3.754;2024-03-08T02:18:50;93020.63;;;6.47;100.00
19783;BME280;10051;40.294;-3.754;2024-03-08T02:21:17;92991.09;;;6.28;100.00
19783;BME280;10051;40.294;-3.754;2024-03-08T02:23:46;92991.19;;;6.42;100.00
19783;BME280;10051;40.294;-3.754;2024-03-08T02:26:12;92985.78;;;6.38;100.00
19783;BME280;10051;40.294;-3.754;2024-03-08T02:28:38;93018.88;;;6.62;100.00
19783;BME280;10051;40.294;-3.754;2024-03-08T02:31:04;92940.63;;;6.13;100.00
19783;BME280;10051;40.294;-3.754;2024-03-08T02:33:33;92996.44;;;6.61;100.00
19783;BME280;10051;40.294;-3.754;2024-03-08T02:35:59;92981.19;;;6.49;100.00
19783;BME280;10051;40.294;-3.754;2024-03-08T02:38:25;92971.88;;;6.43;100.00
19783;BME280;10051;40.294;-3.754;2024-03-08T02:40:52;92992.97;;;6.46;100.00
19783;BME280;10051;40.294;-3.754;2024-03-08T02:43:20;92998.19;;;6.46;100.00
19783;BME280;10051;40.294;-3.754;2024-03-08T02:45:47;92950.91;;;6.29;100.00
19783;BME280;10051;40.294;-3.754;2024-03-08T02:48:14;92956.63;;;6.31;100.00
19783;BME280;10051;40.294;-3.754;2024-03-08T02:50:40;92966.56;;;6.48;100.00
19783;BME280;10051;40.294;-3.754;2024-03-08T02:53:08;92948.22;;;6.34;100.00
19783;BME280;10051;40.294;-3.754;2024-03-08T02:55:35;92952.13;;;6.12;100.00
19783;BME280;10051;40.294;-3.754;2024-03-08T02:58:02;92944.31;;;6.12;100.00
19783;BME280;10051;40.294;-3.754;2024-03-08T03:00:28;92913.44;;;5.95;100.00
19783;BME280;10051;40.294;-3.754;2024-03-08T03:02:58;92951.41;;;6.31;100.00
19783;BME280;10051;40.294;-3.754;2024-03-08T03:05:24;92957.88;;;6.33;100.00
19783;BME280;10051;40.294;-3.754;2024-03-08T03:07:51;92900.94;;;5.92;100.00
19783;BME280;10051;40.294;-3.754;2024-03-08T03:10:17;92919.50;;;6.15;100.00
19783;BME280;10051;40.294;-3.754;2024-03-08T03:12:44;92938.91;;;6.28;100.00
19783;BME280;10051;40.294;-3.754;2024-03-08T03:15:13;92826.50;;;5.56;100.00
19783;BME280;10051;40.294;-3.754;2024-03-08T03:17:39;92898.50;;;6.01;100.00
19783;BME280;10051;40.294;-3.754;2024-03-08T03:20:11;92939.34;;;6.35;100.00
19783;BME280;10051;40.294;-3.754;2024-03-08T03:22:39;92939.66;;;6.28;100.00
19783;BME280;10051;40.294;-3.754;2024-03-08T03:25:09;92908.81;;;6.11;100.00
19783;BME280;10051;40.294;-3.754;2024-03-08T03:27:35;92902.91;;;6.24;100.00
19783;BME280;10051;40.294;-3.754;2024-03-08T03:30:03;92874.28;;;5.95;100.00
19783;BME280;10051;40.294;-3.754;2024-03-08T03:32:47;92950.84;;;6.34;100.00
19783;BME280;10051;40.294;-3.754;2024-03-08T03:35:13;92913.91;;;6.21;100.00
19783;BME280;10051;40.294;-3.754;2024-03-08T03:37:40;92882.97;;;5.90;100.00
19783;BME280;10051;40.294;-3.754;2024-03-08T03:40:09;92925.28;;;6.31;100.00
19783;BME280;10051;40.294;-3.754;2024-03-08T03:42:34;92892.09;;;6.12;100.00
19783;BME280;10051;40.294;-3.754;2024-03-08T03:45:00;92920.75;;;6.17;100.00
19783;BME280;10051;40.294;-3.754;2024-03-08T03:47:29;92891.66;;;6.05;100.00
19783;BME280;10051;40.294;-3.754;2024-03-08T03:49:56;92868.31;;;5.94;100.00
19783;BME280;10051;40.294;-3.754;2024-03-08T03:52:27;92929.28;;;6.42;100.00
19783;BME280;10051;40.294;-3.754;2024-03-08T03:54:52;92866.16;;;5.96;100.00
19783;BME280;10051;40.294;-3.754;2024-03-08T03:57:18;92921.63;;;6.32;100.00
19783;BME280;10051;40.294;-3.754;2024-03-08T03:59:44;92902.91;;;6.24;100.00
19783;BME280;10051;40.294;-3.754;2024-03-08T04:02:10;92895.91;;;6.20;100.00
19783;BME280;10051;40.294;-3.754;2024-03-08T04:04:35;92888.44;;;6.13;100.00
19783;BME280;10051;40.294;-3.754;2024-03-08T04:07:01;92883.72;;;6.15;100.00
19783;BME280;10051;40.294;-3.754;2024-03-08T04:09:27;92899.44;;;6.29;100.00
19783;BME280;10051;40.294;-3.754;2024-03-08T04:11:53;92864.34;;;5.97;100.00
19783;BME280;10051;40.294;-3.754;2024-03-08T04:14:20;92862.09;;;5.90;100.00
19783;BME280;10051;40.294;-3.754;2024-03-08T04:16:46;92900.38;;;6.19;100.00
19783;BME280;10051;40.294;-3.754;2024-03-08T04:19:13;92877.50;;;6.11;100.00
19783;BME280;10051;40.294;-3.754;2024-03-08T04:21:39;92888.56;;;6.22;100.00
19783;BME280;10051;40.294;-3.754;2024-03-08T04:24:05;92858.25;;;6.07;100.00
19783;BME280;10051;40.294;-3.754;2024-03-08T04:26:31;92889.50;;;6.31;100.00
19783;BME280;10051;40.294;-3.754;2024-03-08T04:28:57;92801.16;;;5.81;100.00
19783;BME280;10051;40.294;-3.754;2024-03-08T04:31:22;92854.88;;;6.06;100.00
19783;BME280;10051;40.294;-3.754;2024-03-08T04:33:48;92833.00;;;6.02;100.00
19783;BME280;10051;40.294;-3.754;2024-03-08T04:36:14;92844.00;;;6.18;100.00
19783;BME280;10051;40.294;-3.754;2024-03-08T04:38:42;92821.22;;;6.05;100.00
19783;BME280;10051;40.294;-3.754;2024-03-08T04:41:08;92879.41;;;6.44;100.00
19783;BME280;10051;40.294;-3.754;2024-03-08T04:43:34;92867.28;;;6.34;100.00
19783;BME280;10051;40.294;-3.754;2024-03-08T04:46:00;92886.81;;;6.55;100.00
19783;BME280;10051;40.294;-3.754;2024-03-08T04:48:25;92888.94;;;6.53;100.00
19783;BME280;10051;40.294;-3.754;2024-03-08T04:50:52;92870.94;;;6.52;100.00
19783;BME280;10051;40.294;-3.754;2024-03-08T04:53:19;92871.84;;;6.42;100.00
19783;BME280;10051;40.294;-3.754;2024-03-08T04:55:45;92846.81;;;6.22;100.00
19783;BME280;10051;40.294;-3.754;2024-03-08T04:58:10;92877.91;;;6.57;100.00
19783;BME280;10051;40.294;-3.754;2024-03-08T05:00:36;92873.41;;;6.43;100.00
19783;BME280;10051;40.294;-3.754;2024-03-08T05:03:01;92890.13;;;6.61;100.00
19783;BME280;10051;40.294;-3.754;2024-03-08T05:05:27;92870.78;;;6.43;100.00
19783;BME280;10051;40.294;-3.754;2024-03-08T05:07:54;92853.38;;;6.38;100.00
19783;BME280;10051;40.294;-3.754;2024-03-08T05:10:20;92832.50;;;6.19;100.00
19783;BME280;10051;40.294;-3.754;2024-03-08T05:12:45;92894.28;;;6.43;100.00
19783;BME280;10051;40.294;-3.754;2024-03-08T05:15:11;92864.19;;;6.32;100.00
19783;BME280;10051;40.294;-3.754;2024-03-08T05:17:37;92893.16;;;6.49;100.00
19783;BME280;10051;40.294;-3.754;2024-03-08T05:20:02;92877.66;;;6.39;100.00
19783;BME280;10051;40.294;-3.754;2024-03-08T05:22:29;92886.31;;;6.53;100.00
19783;BME280;10051;40.294;-3.754;2024-03-08T05:24:55;92828.03;;;6.20;100.00
19783;BME280;10051;40.294;-3.754;2024-03-08T05:27:21;92889.34;;;6.61;100.00
19783;BME280;10051;40.294;-3.754;2024-03-08T05:29:47;92779.66;;;5.89;100.00
19783;BME280;10051;40.294;-3.754;2024-03-08T05:32:13;92833.00;;;6.21;100.00
19783;BME280;10051;40.294;-3.754;2024-03-08T05:34:39;92837.44;;;6.21;100.00
19783;BME280;10051;40.294;-3.754;2024-03-08T05:37:05;92860.53;;;6.33;100.00
19783;BME280;10051;40.294;-3.754;2024-03-08T05:39:32;92880.28;;;6.39;100.00
19783;BME280;10051;40.294;-3.754;2024-03-08T05:41:58;92865.81;;;6.28;100.00
19783;BME280;10051;40.294;-3.754;2024-03-08T05:44:23;92850.28;;;6.17;100.00
19783;BME280;10051;40.294;-3.754;2024-03-08T05:46:49;92893.91;;;6.36;100.00
19783;BME280;10051;40.294;-3.754;2024-03-08T05:49:16;92881.25;;;6.24;100.00
19783;BME280;10051;40.294;-3.754;2024-03-08T05:51:41;92830.81;;;6.09;100.00
19783;BME280;10051;40.294;-3.754;2024-03-08T05:54:09;92869.19;;;6.09;100.00
19783;BME280;10051;40.294;-3.754;2024-03-08T05:56:35;92837.00;;;5.94;100.00
19783;BME280;10051;40.294;-3.754;2024-03-08T05:59:02;92880.25;;;6.20;100.00
19783;BME280;10051;40.294;-3.754;2024-03-08T06:01:28;92886.06;;;6.36;100.00
19783;BME280;10051;40.294;-3.754;2024-03-08T06:03:54;92818.56;;;5.86;100.00
19783;BME280;10051;40.294;-3.754;2024-03-08T06:06:26;92790.09;;;5.70;100.00
19783;BME280;10051;40.294;-3.754;2024-03-08T06:08:52;92877.06;;;6.23;100.00
19783;BME280;10051;40.294;-3.754;2024-03-08T06:11:19;92897.28;;;6.36;100.00
19783;BME280;10051;40.294;-3.754;2024-03-08T06:13:46;92894.66;;;6.36;100.00
19783;BME280;10051;40.294;-3.754;2024-03-08T06:16:11;92850.47;;;6.02;100.00
19783;BME280;10051;40.294;-3.754;2024-03-08T06:18:38;92900.44;;;6.33;100.00
19783;BME280;10051;40.294;-3.754;2024-03-08T06:21:05;92855.25;;;5.94;100.00
19783;BME280;10051;40.294;-3.754;2024-03-08T06:23:37;92880.97;;;6.06;100.00
19783;BME280;10051;40.294;-3.754;2024-03-08T06:26:07;92813.16;;;5.82;100.00
19783;BME280;10051;40.294;-3.754;2024-03-08T06:28:33;92879.63;;;6.09;100.00
19783;BME280;10051;40.294;-3.754;2024-03-08T06:31:00;92874.34;;;6.14;100.00
19783;BME280;10051;40.294;-3.754;2024-03-08T06:33:26;92891.41;;;6.25;100.00
19783;BME280;10051;40.294;-3.754;2024-03-08T06:35:52;92877.81;;;6.09;100.00
19783;BME280;10051;40.294;-3.754;2024-03-08T06:38:18;92900.31;;;6.24;100.00
19783;BME280;10051;40.294;-3.754;2024-03-08T06:40:44;92911.13;;;6.37;100.00
19783;BME280;10051;40.294;-3.754;2024-03-08T06:43:13;92848.88;;;5.81;100.00
19783;BME280;10051;40.294;-3.754;2024-03-08T06:45:42;92839.44;;;5.86;100.00
19783;BME280;10051;40.294;-3.754;2024-03-08T06:48:07;92857.13;;;6.13;100.00
19783;BME280;10051;40.294;-3.754;2024-03-08T06:50:35;92910.81;;;6.38;100.00
19783;BME280;10051;40.294;-3.754;2024-03-08T06:53:01;92859.69;;;5.94;100.00
19783;BME280;10051;40.294;-3.754;2024-03-08T06:55:28;92919.78;;;6.32;100.00
19783;BME280;10051;40.294;-3.754;2024-03-08T06:57:54;92892.09;;;6.12;100.00
19783;BME280;10051;40.294;-3.754;2024-03-08T07:00:19;92922.44;;;6.27;100.00
19783;BME280;10051;40.294;-3.754;2024-03-08T07:02:46;92914.91;;;6.25;100.00
19783;BME280;10051;40.294;-3.754;2024-03-08T07:05:11;92908.56;;;6.32;100.00
19783;BME280;10051;40.294;-3.754;2024-03-08T07:07:37;92920.41;;;6.43;100.00
19783;BME280;10051;40.294;-3.754;2024-03-08T07:10:03;92915.53;;;6.36;100.00
19783;BME280;10051;40.294;-3.754;2024-03-08T07:12:29;92907.56;;;6.28;100.00
19783;BME280;10051;40.294;-3.754;2024-03-08T07:14:55;92862.22;;;6.04;100.00
19783;BME280;10051;40.294;-3.754;2024-03-08T07:17:21;92918.72;;;6.33;100.00
19783;BME280;10051;40.294;-3.754;2024-03-08T07:19:46;92925.28;;;6.31;100.00
19783;BME280;10051;40.294;-3.754;2024-03-08T07:22:12;92928.47;;;6.28;100.00
19783;BME280;10051;40.294;-3.754;2024-03-08T07:24:37;92907.69;;;6.17;100.00
19783;BME280;10051;40.294;-3.754;2024-03-08T07:27:04;92923.25;;;6.28;100.00
19783;BME280;10051;40.294;-3.754;2024-03-08T07:29:31;92912.44;;;6.15;100.00
19783;BME280;10051;40.294;-3.754;2024-03-08T07:31:56;92938.59;;;6.29;100.00
19783;BME280;10051;40.294;-3.754;2024-03-08T07:34:28;92882.28;;;6.04;100.00
19783;BME280;10051;40.294;-3.754;2024-03-08T07:36:57;92899.81;;;6.22;100.00
19783;BME280;10051;40.294;-3.754;2024-03-08T07:39:23;92884.13;;;6.03;100.00
19783;BME280;10051;40.294;-3.754;2024-03-08T07:41:49;92916.09;;;6.33;100.00
19783;BME280;10051;40.294;-3.754;2024-03-08T07:44:18;92872.22;;;6.16;100.00
19783;BME280;10051;40.294;-3.754;2024-03-08T07:46:44;92914.34;;;6.48;100.00
19783;BME280;10051;40.294;-3.754;2024-03-08T07:49:10;92898.13;;;6.32;100.00
19783;BME280;10051;40.294;-3.754;2024-03-08T07:51:37;92940.97;;;6.69;100.00
19783;BME280;10051;40.294;-3.754;2024-03-08T07:54:04;92941.03;;;6.64;100.00
19783;BME280;10051;40.294;-3.754;2024-03-08T07:56:30;92916.41;;;6.51;100.00
19783;BME280;10051;40.294;-3.754;2024-03-08T07:58:56;92907.66;;;6.42;100.00
19783;BME280;10051;40.294;-3.754;2024-03-08T08:01:22;92947.09;;;6.78;100.00
19783;BME280;10051;40.294;-3.754;2024-03-08T08:03:47;92885.63;;;6.48;100.00
19783;BME280;10051;40.294;-3.754;2024-03-08T08:06:16;92953.94;;;6.93;100.00
19783;BME280;10051;40.294;-3.754;2024-03-08T08:08:43;92952.72;;;6.85;100.00
19783;BME280;10051;40.294;-3.754;2024-03-08T08:11:09;92933.13;;;6.69;100.00
19783;BME280;10051;40.294;-3.754;2024-03-08T08:13:36;92946.22;;;6.83;100.00
19783;BME280;10051;40.294;-3.754;2024-03-08T08:16:05;92897.25;;;6.55;100.00
19783;BME280;10051;40.294;-3.754;2024-03-08T08:18:32;92957.72;;;7.01;100.00
19783;BME280;10051;40.294;-3.754;2024-03-08T08:20:58;92930.19;;;6.90;100.00
19783;BME280;10051;40.294;-3.754;2024-03-08T08:23:27;92939.44;;;7.01;100.00
19783;BME280;10051;40.294;-3.754;2024-03-08T08:25:53;92951.06;;;7.09;100.00
19783;BME280;10051;40.294;-3.754;2024-03-08T08:28:18;92957.50;;;7.17;100.00
19783;BME280;10051;40.294;-3.754;2024-03-08T08:30:44;92983.06;;;7.53;100.00
19783;BME280;10051;40.294;-3.754;2024-03-08T08:33:10;92959.50;;;7.53;100.00
19783;BME280;10051;40.294;-3.754;2024-03-08T08:35:39;92932.34;;;7.35;100.00
19783;BME280;10051;40.294;-3.754;2024-03-08T08:38:05;92986.41;;;7.72;100.00
19783;BME280;10051;40.294;-3.754;2024-03-08T08:40:30;92992.09;;;7.74;100.00
19783;BME280;10051;40.294;-3.754;2024-03-08T08:43:00;92969.59;;;7.59;100.00
19783;BME280;10051;40.294;-3.754;2024-03-08T08:45:26;92997.63;;;7.73;100.00
19783;BME280;10051;40.294;-3.754;2024-03-08T08:47:52;92962.44;;;7.65;100.00
19783;BME280;10051;40.294;-3.754;2024-03-08T08:50:18;92991.50;;;7.78;100.00
19783;BME280;10051;40.294;-3.754;2024-03-08T08:52:49;92954.28;;;7.53;100.00
19783;BME280;10051;40.294;-3.754;2024-03-08T08:55:15;92944.69;;;7.48;100.00
19783;BME280;10051;40.294;-3.754;2024-03-08T08:57:41;92953.88;;;7.46;100.00
19783;BME280;10051;40.294;-3.754;2024-03-08T09:00:07;93009.75;;;7.83;100.00
19783;BME280;10051;40.294;-3.754;2024-03-08T09:02:36;92971.94;;;7.61;100.00
19783;BME280;10051;40.294;-3.754;2024-03-08T09:05:03;93019.03;;;7.75;100.00
19783;BME280;10051;40.294;-3.754;2024-03-08T09:07:29;93026.31;;;7.78;100.00
19783;BME280;10051;40.294;-3.754;2024-03-08T09:09:55;93007.97;;;7.64;100.00
19783;BME280;10051;40.294;-3.754;2024-03-08T09:12:24;93021.75;;;7.70;100.00
19783;BME280;10051;40.294;-3.754;2024-03-08T09:14:49;93026.59;;;7.77;100.00
19783;BME280;10051;40.294;-3.754;2024-03-08T09:17:16;93016.91;;;7.77;100.00
19783;BME280;10051;40.294;-3.754;2024-03-08T09:19:49;93022.81;;;7.83;100.00
19783;BME280;10051;40.294;-3.754;2024-03-08T09:22:15;92975.28;;;7.48;100.00
19783;BME280;10051;40.294;-3.754;2024-03-08T09:24:41;93014.78;;;7.79;100.00
19783;BME280;10051;40.294;-3.754;2024-03-08T09:27:08;92991.38;;;7.55;100.00
19783;BME280;10051;40.294;-3.754;2024-03-08T09:29:35;92969.00;;;7.49;100.00
19783;BME280;10051;40.294;-3.754;2024-03-08T09:32:01;93033.03;;;7.84;100.00
19783;BME280;10051;40.294;-3.754;2024-03-08T09:34:27;93022.41;;;7.76;100.00
19783;BME280;10051;40.294;-3.754;2024-03-08T09:36:52;93044.81;;;7.82;100.00
19783;BME280;10051;40.294;-3.754;2024-03-08T09:39:18;93009.53;;;7.65;100.00
19783;BME280;10051;40.294;-3.754;2024-03-08T09:41:46;93045.81;;;7.86;100.00
19783;BME280;10051;40.294;-3.754;2024-03-08T09:44:18;93016.31;;;7.66;100.00
19783;BME280;10051;40.294;-3.754;2024-03-08T09:46:45;93051.84;;;8.00;100.00
19783;BME280;10051;40.294;-3.754;2024-03-08T09:49:13;93054.28;;;8.11;100.00
19783;BME280;10051;40.294;-3.754;2024-03-08T09:51:38;93047.38;;;8.01;100.00
19783;BME280;10051;40.294;-3.754;2024-03-08T09:54:07;93068.16;;;8.11;100.00
19783;BME280;10051;40.294;-3.754;2024-03-08T09:56:35;92975.88;;;7.58;100.00
19783;BME280;10051;40.294;-3.754;2024-03-08T09:59:00;92995.47;;;7.61;100.00
19783;BME280;10051;40.294;-3.754;2024-03-08T10:01:28;93072.41;;;8.07;100.00
19783;BME280;10051;40.294;-3.754;2024-03-08T10:03:54;93046.22;;;7.93;100.00
19783;BME280;10051;40.294;-3.754;2024-03-08T10:06:23;93014.31;;;7.77;100.00
19783;BME280;10051;40.294;-3.754;2024-03-08T10:08:49;93035.16;;;7.96;100.00
19783;BME280;10051;40.294;-3.754;2024-03-08T10:11:17;93046.03;;;8.03;100.00
19783;BME280;10051;40.294;-3.754;2024-03-08T10:13:44;93055.53;;;8.13;100.00
19783;BME280;10051;40.294;-3.754;2024-03-08T10:16:12;93043.50;;;7.98;100.00
19783;BME280;10051;40.294;-3.754;2024-03-08T10:18:37;93037.97;;;8.00;100.00
19783;BME280;10051;40.294;-3.754;2024-03-08T10:21:05;93043.13;;;8.05;100.00
19783;BME280;10051;40.294;-3.754;2024-03-08T10:23:33;93043.59;;;7.93;99.58
19783;BME280;10051;40.294;-3.754;2024-03-08T10:26:12;93069.03;;;8.21;99.86
19783;BME280;10051;40.294;-3.754;2024-03-08T10:28:45;93066.59;;;8.24;100.00
19783;BME280;10051;40.294;-3.754;2024-03-08T10:31:13;93054.31;;;8.25;100.00
19783;BME280;10051;40.294;-3.754;2024-03-08T10:33:40;93073.84;;;8.60;98.95
19783;BME280;10051;40.294;-3.754;2024-03-08T10:36:10;93035.88;;;8.44;99.01
19783;BME280;10051;40.294;-3.754;2024-03-08T10:38:40;93035.28;;;8.47;98.42
19783;BME280;10051;40.294;-3.754;2024-03-08T10:41:08;93073.22;;;8.91;94.96
19783;BME280;10051;40.294;-3.754;2024-03-08T10:48:43;93088.66;;;8.79;93.90
19783;BME280;10051;40.294;-3.754;2024-03-08T10:51:11;93021.81;;;8.40;95.09
19783;BME280;10051;40.294;-3.754;2024-03-08T10:53:38;93087.88;;;8.92;94.39
19783;BME280;10051;40.294;-3.754;2024-03-08T10:56:06;93076.13;;;8.76;94.01
19783;BME280;10051;40.294;-3.754;2024-03-08T10:58:35;93078.84;;;8.71;93.01
19783;BME280;10051;40.294;-3.754;2024-03-08T11:01:02;93041.03;;;8.49;93.08
19783;BME280;10051;40.294;-3.754;2024-03-08T11:06:14;93046.75;;;8.65;91.16
19783;BME280;10051;40.294;-3.754;2024-03-08T11:08:41;93100.28;;;9.01;91.03
19783;BME280;10051;40.294;-3.754;2024-03-08T11:11:23;93110.66;;;9.06;90.59
19783;BME280;10051;40.294;-3.754;2024-03-08T11:13:53;93078.66;;;8.81;88.50
19783;BME280;10051;40.294;-3.754;2024-03-08T11:21:43;93099.34;;;8.97;86.80
19783;BME280;10051;40.294;-3.754;2024-03-08T11:24:13;93055.69;;;8.64;88.26
19783;BME280;10051;40.294;-3.754;2024-03-08T11:26:42;93135.09;;;9.29;86.21
19783;BME280;10051;40.294;-3.754;2024-03-08T11:32:26;93124.31;;;9.31;84.44
19783;BME280;10051;40.294;-3.754;2024-03-08T11:34:53;93117.72;;;9.19;85.79
19783;BME280;10051;40.294;-3.754;2024-03-08T11:37:21;93083.50;;;9.02;86.02
19783;BME280;10051;40.294;-3.754;2024-03-08T11:39:48;93089.22;;;9.04;85.90
19783;BME280;10051;40.294;-3.754;2024-03-08T11:42:18;93031.78;;;8.66;84.78
19783;BME280;10051;40.294;-3.754;2024-03-08T11:44:48;93124.31;;;9.31;83.64
19783;BME280;10051;40.294;-3.754;2024-03-08T11:47:15;93097.22;;;9.21;84.72
19783;BME280;10051;40.294;-3.754;2024-03-08T11:49:41;93062.88;;;9.09;82.23
19783;BME280;10051;40.294;-3.754;2024-03-08T11:52:16;93078.38;;;9.19;83.17
19783;BME280;10051;40.294;-3.754;2024-03-08T11:54:43;93095.94;;;9.33;82.95
19783;BME280;10051;40.294;-3.754;2024-03-08T11:57:17;93114.44;;;9.50;83.11
19783;BME280;10051;40.294;-3.754;2024-03-08T11:59:50;93080.81;;;9.52;81.65
19783;BME280;10051;40.294;-3.754;2024-03-08T12:02:15;93054.97;;;9.46;82.72
19783;BME280;10051;40.294;-3.754;2024-03-08T12:04:41;93109.53;;;10.03;79.89
19783;BME280;10051;40.294;-3.754;2024-03-08T12:07:09;93068.81;;;9.83;79.57
19783;BME280;10051;40.294;-3.754;2024-03-08T12:09:37;93062.19;;;9.86;80.37
19783;BME280;10051;40.294;-3.754;2024-03-08T12:12:03;93083.63;;;10.10;79.68
19783;BME280;10051;40.294;-3.754;2024-03-08T12:14:30;93021.19;;;9.76;79.46
19783;BME280;10051;40.294;-3.754;2024-03-08T12:16:57;93097.50;;;10.34;79.57
19783;BME280;10051;40.294;-3.754;2024-03-08T12:19:23;93076.53;;;10.11;78.77
19783;BME280;10051;40.294;-3.754;2024-03-08T12:21:48;93089.47;;;10.30;80.15
19783;BME280;10051;40.294;-3.754;2024-03-08T12:24:16;93094.59;;;10.04;81.74
19783;BME280;10051;40.294;-3.754;2024-03-08T12:26:45;93078.53;;;9.82;88.11
19783;BME280;10051;40.294;-3.754;2024-03-08T12:29:22;93065.91;;;9.85;90.43
19783;BME280;10051;40.294;-3.754;2024-03-08T12:31:56;93035.59;;;9.78;89.08
19783;BME280;10051;40.294;-3.754;2024-03-08T12:34:24;93074.56;;;10.17;86.11
19783;BME280;10051;40.294;-3.754;2024-03-08T12:36:51;93050.88;;;10.39;83.54
19783;BME280;10051;40.294;-3.754;2024-03-08T12:39:19;93069.66;;;10.64;83.41
19783;BME280;10051;40.294;-3.754;2024-03-08T12:41:48;93045.28;;;10.32;79.86
19783;BME280;10051;40.294;-3.754;2024-03-08T12:44:15;93013.44;;;10.02;79.99
19783;BME280;10051;40.294;-3.754;2024-03-08T12:46:40;93075.97;;;10.23;82.42
19783;BME280;10051;40.294;-3.754;2024-03-08T12:49:09;93061.91;;;10.19;80.68
19783;BME280;10051;40.294;-3.754;2024-03-08T12:51:36;93012.84;;;9.74;79.90
19783;BME280;10051;40.294;-3.754;2024-03-08T12:54:02;93028.19;;;9.80;80.43
19783;BME280;10051;40.294;-3.754;2024-03-08T12:56:29;93061.19;;;10.04;80.02
19783;BME280;10051;40.294;-3.754;2024-03-08T12:58:56;93043.06;;;9.94;79.15
19783;BME280;10051;40.294;-3.754;2024-03-08T13:01:22;93046.53;;;10.03;76.82
19783;BME280;10051;40.294;-3.754;2024-03-08T13:03:48;93045.63;;;10.08;77.80
19783;BME280;10051;40.294;-3.754;2024-03-08T13:06:15;93011.66;;;10.11;78.41